Time;durP1;ratioP1;P1;durP2;ratioP2;P2;SDS_P1;SDS_P2;PMS_P1;PMS_P2;Temp;Humidity;BMP_temperature;BMP_pressure;BME280_temperature;BME280_humidity;BME280_pressure;Samples;Min_cycle;Max_cycle;Signal;HPM_P1;HPM_P2
2022/10/05 00:03:54;;;;;;;;;;;;;;;;;;12599320;28;20296;-79
2022/10/05 00:09:56;;;;;;;;;;;;;;;;;;12616613;28;20265;-79
2022/10/05 00:15:58;;;;;;;;;;;;;;;;;;12634703;28;19916;-80
2022/10/05 00:21:59;;;;;;;;;;;;;;;;;;12626329;28;19923;-79
2022/10/05 00:28:01;;;;;;;;;;;;;;;;;;12627881;28;19956;-80
2022/10/05 00:34:02;;;;;;;;;;;;;;;;;;12626616;28;20279;-79
2022/10/05 00:40:04;;;;;;;;;;;;;;;;;;12626292;28;19935;-79
2022/10/05 00:46:06;;;;;;;;;;;;;;;;;;12643920;28;19912;-80
2022/10/05 00:52:08;;;;;;;;;;;;;;;;;;12625117;28;19931;-79
2022/10/05 00:58:09;;;;;;;;;;;;;;;;;;12624141;28;20497;-80
2022/10/05 01:04:11;;;;;;;;;;;;;;;;;;12625398;28;19908;-79
2022/10/05 01:10:14;;;;;;;;;;;;;;;;;;12607653;28;19908;-79
2022/10/05 01:16:17;;;;;;;;;;;;;;;;;;12623810;28;20330;-78
2022/10/05 01:22:18;;;;;;;;;;;;;;;;;;12607391;28;20291;-77
2022/10/05 01:28:20;;;;;;;;;;;;;;;;;;12641183;28;20260;-78
2022/10/05 01:34:21;;;;;;;;;;;;;;;;;;12622795;28;20479;-78
2022/10/05 01:40:23;;;;;;;;;;;;;;;;;;12606119;28;20368;-79
2022/10/05 01:46:24;;;;;;;;;;;;;;;;;;12641225;28;19912;-78
2022/10/05 01:52:26;;;;;;;;;;;;;;;;;;12640231;28;20005;-79
2022/10/05 01:58:28;;;;;;;;;;;;;;;;;;12640800;28;20398;-80
2022/10/05 02:04:29;;;;;;;;;;;;;;;;;;12622400;28;19912;-79
2022/10/05 02:10:31;;;;;;;;;;;;;;;;;;12621307;28;19931;-79
2022/10/05 02:16:34;;;;;;;;;;;;;;;;;;12605998;28;19920;-78
2022/10/05 02:22:35;;;;;;;;;;;;;;;;;;12621181;28;19987;-78
2022/10/05 02:28:37;;;;;;;;;;;;;;;;;;12604583;28;19908;-78
2022/10/05 02:34:39;;;;;;;;;;;;;;;;;;12620290;28;20374;-79
2022/10/05 02:40:51;;;;;;;;;;;;;;;;;;12618272;28;20402;-80
2022/10/05 02:46:54;;;;;;;;;;;;;;;;;;12620504;28;20273;-80
2022/10/05 02:52:56;;;;;;;;;;;;;;;;;;12620265;28;19916;-80
2022/10/05 02:58:58;;;;;;;;;;;;;;;;;;12620081;28;19916;-80
2022/10/05 03:04:59;;;;;;;;;;;;;;;;;;12619689;28;20002;-79
2022/10/05 03:11:01;;;;;;;;;;;;;;;;;;12619560;28;20279;-79
2022/10/05 03:17:03;;;;;;;;;;;;;;;;;;12618936;28;19931;-79
2022/10/05 03:23:05;;;;;;;;;;;;;;;;;;12602950;28;20249;-79
2022/10/05 03:29:09;;;;;;;;;;;;;;;;;;12602301;28;20386;-79
2022/10/05 03:35:11;;;;;;;;;;;;;;;;;;12617620;28;19907;-79
2022/10/05 03:41:13;;;;;;;;;;;;;;;;;;12617619;28;20381;-79
2022/10/05 03:47:14;;;;;;;;;;;;;;;;;;12600495;28;20338;-78
2022/10/05 03:53:16;;;;;;;;;;;;;;;;;;12599798;28;20010;-78
2022/10/05 03:59:17;;;;;;;;;;;;;;;;;;12635056;28;19977;-80
2022/10/05 04:05:20;;;;;;;;;;;;;;;;;;12617159;28;19919;-79
2022/10/05 04:11:22;;;;;;;;;;;;;;;;;;12601479;28;19930;-79
2022/10/05 04:17:23;;;;;;;;;;;;;;;;;;12616861;28;20372;-80
2022/10/05 04:23:25;;;;;;;;;;;;;;;;;;12601004;28;19908;-79
2022/10/05 04:29:27;;;;;;;;;;;;;;;;;;12616911;28;19915;-79
2022/10/05 04:35:28;;;;;;;;;;;;;;;;;;12616460;28;20021;-80
2022/10/05 04:41:30;;;;;;;;;;;;;;;;;;12616371;28;19920;-80
2022/10/05 04:47:34;;;;;;;;;;;;;;;;;;12600528;28;20280;-78
2022/10/05 04:53:35;;;;;;;;;;;;;;;;;;12599511;28;19923;-78
2022/10/05 04:59:37;;;;;;;;;;;;;;;;;;12599610;28;19938;-78
2022/10/05 05:05:39;;;;;;;;;;;;;;;;;;12621730;28;19915;-79
2022/10/05 05:11:41;;;;;;;;;;;;;;;;;;12625585;28;19908;-79
2022/10/05 05:17:43;;;;;;;;;;;;;;;;;;12608241;28;19927;-79
2022/10/05 05:23:45;;;;;;;;;;;;;;;;;;12627244;28;20372;-79
2022/10/05 05:29:47;;;;;;;;;;;;;;;;;;12643605;28;19930;-80
2022/10/05 05:35:49;;;;;;;;;;;;;;;;;;12624629;28;20364;-81
2022/10/05 05:41:50;;;;;;;;;;;;;;;;;;12607611;28;19916;-81
2022/10/05 05:47:52;;;;;;;;;;;;;;;;;;12623081;28;19908;-79
2022/10/05 05:53:56;;;;;;;;;;;;;;;;;;12599116;28;19912;-78
2022/10/05 05:59:57;;;;;;;;;;;;;;;;;;12586105;28;19927;-78
2022/10/05 06:05:59;;;;;;;;;;;;;;;;;;12582030;28;19911;-79
2022/10/05 06:12:01;;;;;;;;;;;;;;;;;;12584105;28;20863;-76
2022/10/05 06:18:02;;;;;;;;;;;;;;;;;;12565001;28;20146;-79
2022/10/05 06:24:04;;;;;;;;;;;;;;;;;;12592141;28;19935;-78
2022/10/05 06:30:06;;;;;;;;;;;;;;;;;;12596186;28;20205;-78
2022/10/05 06:36:09;;;;;;;;;;;;;;;;;;12598694;28;20284;-79
2022/10/05 06:42:12;;;;;;;;;;;;;;;;;;12598262;28;19919;-79
2022/10/05 06:48:32;;;;;;;;;;;;;;;;;;12595241;28;20025;-79
2022/10/05 06:54:47;;;;;;;;;;;;;;;;;;12582208;28;19924;-78
2022/10/05 07:00:50;;;;;;;;;;;;;;;;;;12600104;28;19981;-79
2022/10/05 07:06:51;;;;;;;;;;;;;;;;;;12625311;28;19908;-79
2022/10/05 07:12:53;;;;;;;;;;;;;;;;;;12592016;28;19908;-80
2022/10/05 07:18:55;;;;;;;;;;;;;;;;;;12590063;28;20284;-79
2022/10/05 07:24:57;;;;;;;;;;;;;;;;;;12594703;28;19931;-79
2022/10/05 07:30:59;;;;;;;;;;;;;;;;;;12575981;28;19967;-79
2022/10/05 07:43:21;;;;;;;;;;;;;;;;;;12586273;28;19912;-80
2022/10/05 07:49:23;;;;;;;;;;;;;;;;;;12587048;28;19927;-79
2022/10/05 07:55:25;;;;;;;;;;;;;;;;;;12586670;28;19912;-79
2022/10/05 08:01:28;;;;;;;;;;;;;;;;;;12625280;28;20295;-80
2022/10/05 08:07:32;;;;;;;;;;;;;;;;;;12595843;28;20344;-78
2022/10/05 08:13:34;;;;;;;;;;;;;;;;;;12609273;28;19938;-79
2022/10/05 08:19:35;;;;;;;;;;;;;;;;;;12597382;28;19967;-78
2022/10/05 08:25:37;;;;;;;;;;;;;;;;;;12605625;23;19916;-95
2022/10/05 08:31:39;;;;;;;;;;;;;;;;;;12527039;28;19956;-92
2022/10/05 08:37:40;;;;;;;;;;;;;;;;;;12543572;28;19917;-88
2022/10/05 08:43:42;;;;;;;;;;;;;;;;;;12557664;28;19913;-89
